Skip to main content.
Our real time weather data display below is updated continuously via our 24/7 live data feed.
 TIME   TEMPERATURE   WINDSPEED   DIRECTION   HUMIDITY   BAROMETER   RAINFALL 
2:01 11.8°C (53.2°F) 3.7 kmh (2.3 mph) S 78% 1002.5hPa (29.60 inHg) 0.3mm (0.01 in.)
1:01 11.4°C (52.5 °F) 5.6 kmh (3.5 mph) SSW 81% 1002.8hPa (29.61 inHg) 0.3mm (0.01 in.)
0:01 11.6°C (52.9 °F) 3.7 kmh (2.3 mph) SSW 79% 1003.2hPa (29.62 inHg) 0.3mm (0.01 in.)
23:01 12.0°C (53.6 °F) 5.6 kmh (3.5 mph) WNW 74% 1003.1hPa (29.62 inHg) 0.3mm (0.01 in.)
21:57 12.0°C (53.6 °F) 7.4 kmh (4.6 mph) NW 71% 1003.1hPa (29.62 inHg) 0.3mm (0.01 in.)
20:57 12.1°C (53.8 °F) 9.3 kmh (5.8 mph) N 70% 1002.9hPa (29.62 inHg) 0.3mm (0.01 in.)
19:57 11.9°C (53.4 °F) 14.8 kmh (9.2 mph) WNW 66% 1002.3hPa (29.60 inHg) 0.3mm (0.01 in.)
18:57 12.3°C (54.1 °F) 11.1 kmh (6.9 mph) NNW 72% 1001.8hPa (29.58 inHg) 0.3mm (0.01 in.)
17:57 12.1°C (53.8 °F) 5.6 kmh (3.5 mph) N 71% 1001.2hPa (29.57 inHg) 0.3mm (0.01 in.)
16:57 12.8°C (55.0 °F) 13.0 kmh (8.1 mph) SW 74% 1000.8hPa (29.55 inHg) 0.3mm (0.01 in.)
15:57 13.1°C (55.6 °F) 16.7 kmh (10.4 mph) WNW 78% 1000.2hPa (29.54 inHg) 0.3mm (0.01 in.)
14:57 14.0°C (57.2 °F) 16.7 kmh (10.4 mph) NW 85% 999.7hPa (29.52 inHg) 0.3mm (0.01 in.)
13:57 13.9°C (57.0 °F) 13.0 kmh (8.1 mph) NNW 86% 999.0hPa (29.50 inHg) 0.3mm (0.01 in.)
12:57 17.0°C (62.6 °F) 5.6 kmh (3.5 mph) NNW 80% 998.3hPa (29.48 inHg) 0.3mm (0.01 in.)
11:57 18.9°C (66.0 °F) 1.9 kmh (1.2 mph) SSW 73% 999.0hPa (29.50 inHg) 0.3mm (0.01 in.)
10:57 17.9°C (64.2 °F) 0.0 kmh (0.0 mph) ESE 81% 999.3hPa (29.51 inHg) 0.3mm (0.01 in.)
9:57 16.4°C (61.5 °F) 5.6 kmh (3.5 mph) ENE 86% 999.6hPa (29.52 inHg) 0.3mm (0.01 in.)
8:57 15.3°C (59.5 °F) 7.4 kmh (4.6 mph) ENE 91% 1000.1hPa (29.53 inHg) 0.3mm (0.01 in.)
7:57 14.7°C (58.5 °F) 9.3 kmh (5.8 mph) E 93% 1000.5hPa (29.54 inHg) 0.3mm (0.01 in.)
6:57 14.4°C (57.9 °F) 7.4 kmh (4.6 mph) ENE 92% 1001.1hPa (29.56 inHg) 0.3mm (0.01 in.)
5:57 14.1°C (57.4 °F) 3.7 kmh (2.3 mph) ENE 91% 1001.3hPa (29.57 inHg) 0.3mm (0.01 in.)
4:57 13.7°C (56.7 °F) 1.9 kmh (1.2 mph) ENE 90% 1002.0hPa (29.59 inHg) 0.3mm (0.01 in.)
3:57 13.7°C (56.7 °F) 9.3 kmh (5.8 mph) E 87% 1002.1hPa (29.59 inHg) 0.3mm (0.01 in.)
2:57 13.9°C (57.0 °F) 5.6 kmh (3.5 mph) ESE 80% 1002.8hPa (29.61 inHg) 0.3mm (0.01 in.)